Government Camp, Oregon
Current Conditions -  °F | °C
As of 9:39 AM on Friday 24 Oct 2014 (Local Time) from K4S2 Reporting Station
Broken Clouds Broken Clouds  
Wind Chill: 48°   Ceiling: 700
Heat Index: 48°   Visibility: 7mi
Dew Point: 46°   Wind: 0mph
Humidity: 93%   Direction: NA
Pressure: 30.07"   Gusts: NA
Location:  45.3°N, 121.75°W
Report Text: K4S2 241639Z AUTO 00000KT 7SM SCT001 BKN007 BKN010 09/08 A3007 RMK AO2 SLP198 T00900080
Loading
Personal Weather Stations






























Interactive Weather Map
Tropical Storm Tracking
New forecast layout! Learn more

10-Day Weather Forecast

Advertisements
Track Severe Weather on mobile